sensor_id;sensor_type;location;lat;lon;timestamp;pressure;altitude;pressure_sealevel;temperature;humidity
53546;BME280;39432;51.902;10.844;2023-07-02T00:01:43;98548.25;;;17.51;100.00
53546;BME280;39432;51.902;10.844;2023-07-02T00:04:13;98560.78;;;17.57;100.00
53546;BME280;39432;51.902;10.844;2023-07-02T00:06:43;98554.59;;;17.52;100.00
53546;BME280;39432;51.902;10.844;2023-07-02T00:09:14;98554.88;;;17.68;100.00
53546;BME280;39432;51.902;10.844;2023-07-02T00:11:45;98555.06;;;17.62;100.00
53546;BME280;39432;51.902;10.844;2023-07-02T00:14:15;98557.66;;;17.68;100.00
53546;BME280;39432;51.902;10.844;2023-07-02T00:16:47;98564.41;;;17.41;100.00
53546;BME280;39432;51.902;10.844;2023-07-02T00:19:17;98557.41;;;17.43;100.00
53546;BME280;39432;51.902;10.844;2023-07-02T00:21:47;98566.22;;;17.28;100.00
53546;BME280;39432;51.902;10.844;2023-07-02T00:24:17;98568.81;;;17.42;100.00
53546;BME280;39432;51.902;10.844;2023-07-02T00:26:47;98558.38;;;17.47;100.00
53546;BME280;39432;51.902;10.844;2023-07-02T00:29:17;98557.38;;;17.60;100.00
53546;BME280;39432;51.902;10.844;2023-07-02T00:31:49;98546.94;;;17.57;100.00
53546;BME280;39432;51.902;10.844;2023-07-02T00:34:19;98544.06;;;17.45;100.00
53546;BME280;39432;51.902;10.844;2023-07-02T00:36:50;98548.78;;;17.53;100.00
53546;BME280;39432;51.902;10.844;2023-07-02T00:39:20;98544.00;;;17.62;100.00
53546;BME280;39432;51.902;10.844;2023-07-02T00:41:50;98538.88;;;17.44;100.00
53546;BME280;39432;51.902;10.844;2023-07-02T00:44:20;98540.09;;;17.63;100.00
53546;BME280;39432;51.902;10.844;2023-07-02T00:46:52;98531.31;;;17.70;100.00
53546;BME280;39432;51.902;10.844;2023-07-02T00:49:23;98535.22;;;17.60;100.00
53546;BME280;39432;51.902;10.844;2023-07-02T00:51:54;98534.88;;;17.71;100.00
53546;BME280;39432;51.902;10.844;2023-07-02T00:54:23;98539.97;;;17.51;100.00
53546;BME280;39432;51.902;10.844;2023-07-02T00:56:53;98541.28;;;17.45;100.00
53546;BME280;39432;51.902;10.844;2023-07-02T00:59:23;98549.06;;;17.52;100.00
53546;BME280;39432;51.902;10.844;2023-07-02T01:01:56;98551.03;;;17.51;100.00
53546;BME280;39432;51.902;10.844;2023-07-02T01:04:26;98555.41;;;17.52;100.00
53546;BME280;39432;51.902;10.844;2023-07-02T01:06:57;98549.25;;;17.55;100.00
53546;BME280;39432;51.902;10.844;2023-07-02T01:09:27;98539.75;;;17.82;100.00
53546;BME280;39432;51.902;10.844;2023-07-02T01:11:58;98544.28;;;17.87;100.00
53546;BME280;39432;51.902;10.844;2023-07-02T01:14:32;98545.28;;;17.74;100.00
53546;BME280;39432;51.902;10.844;2023-07-02T01:17:06;98547.81;;;17.96;100.00
53546;BME280;39432;51.902;10.844;2023-07-02T01:19:44;98530.69;;;18.03;100.00
53546;BME280;39432;51.902;10.844;2023-07-02T01:22:19;98544.47;;;18.11;100.00
53546;BME280;39432;51.902;10.844;2023-07-02T01:24:50;98548.88;;;17.65;100.00
53546;BME280;39432;51.902;10.844;2023-07-02T01:27:21;98555.31;;;17.23;100.00
53546;BME280;39432;51.902;10.844;2023-07-02T01:29:51;98533.72;;;17.07;100.00
53546;BME280;39432;51.902;10.844;2023-07-02T01:32:22;98540.03;;;17.34;100.00
53546;BME280;39432;51.902;10.844;2023-07-02T01:34:55;98542.00;;;17.07;100.00
53546;BME280;39432;51.902;10.844;2023-07-02T01:37:25;98541.97;;;17.25;100.00
53546;BME280;39432;51.902;10.844;2023-07-02T01:39:55;98542.50;;;17.09;100.00
53546;BME280;39432;51.902;10.844;2023-07-02T01:42:25;98552.59;;;16.88;100.00
53546;BME280;39432;51.902;10.844;2023-07-02T01:44:55;98541.81;;;17.30;100.00
53546;BME280;39432;51.902;10.844;2023-07-02T01:47:26;98543.28;;;17.27;100.00
53546;BME280;39432;51.902;10.844;2023-07-02T01:49:59;98540.34;;;17.32;100.00
53546;BME280;39432;51.902;10.844;2023-07-02T01:52:29;98542.13;;;17.37;100.00
53546;BME280;39432;51.902;10.844;2023-07-02T01:55:01;98530.63;;;17.26;100.00
53546;BME280;39432;51.902;10.844;2023-07-02T01:57:31;98536.66;;;17.20;100.00
53546;BME280;39432;51.902;10.844;2023-07-02T02:00:01;98537.97;;;17.05;100.00
53546;BME280;39432;51.902;10.844;2023-07-02T02:02:41;98545.75;;;17.11;100.00
53546;BME280;39432;51.902;10.844;2023-07-02T02:05:14;98551.13;;;16.82;100.00
53546;BME280;39432;51.902;10.844;2023-07-02T02:07:45;98542.03;;;16.73;100.00
53546;BME280;39432;51.902;10.844;2023-07-02T02:13:32;98552.59;;;16.71;100.00
53546;BME280;39432;51.902;10.844;2023-07-02T02:16:03;98545.25;;;16.66;100.00
53546;BME280;39432;51.902;10.844;2023-07-02T02:18:33;98539.75;;;16.75;100.00
53546;BME280;39432;51.902;10.844;2023-07-02T02:21:06;98543.50;;;16.79;100.00
53546;BME280;39432;51.902;10.844;2023-07-02T02:23:36;98542.16;;;16.68;100.00
53546;BME280;39432;51.902;10.844;2023-07-02T02:26:06;98537.47;;;16.77;100.00
53546;BME280;39432;51.902;10.844;2023-07-02T02:28:36;98530.78;;;16.60;100.00
53546;BME280;39432;51.902;10.844;2023-07-02T02:31:05;98518.44;;;16.67;100.00
53546;BME280;39432;51.902;10.844;2023-07-02T02:33:36;98518.63;;;16.70;100.00
53546;BME280;39432;51.902;10.844;2023-07-02T02:36:08;98509.00;;;16.68;100.00
53546;BME280;39432;51.902;10.844;2023-07-02T02:38:38;98516.03;;;16.74;100.00
53546;BME280;39432;51.902;10.844;2023-07-02T02:41:08;98520.75;;;16.73;100.00
53546;BME280;39432;51.902;10.844;2023-07-02T02:43:43;98524.47;;;16.77;100.00
53546;BME280;39432;51.902;10.844;2023-07-02T02:46:19;98526.06;;;16.70;100.00
53546;BME280;39432;51.902;10.844;2023-07-02T02:48:52;98522.34;;;16.66;100.00
53546;BME280;39432;51.902;10.844;2023-07-02T02:51:24;98522.97;;;16.63;100.00
53546;BME280;39432;51.902;10.844;2023-07-02T02:53:54;98525.41;;;16.64;100.00
53546;BME280;39432;51.902;10.844;2023-07-02T02:56:24;98526.56;;;16.54;100.00
53546;BME280;39432;51.902;10.844;2023-07-02T02:58:53;98527.19;;;16.34;100.00
53546;BME280;39432;51.902;10.844;2023-07-02T03:01:23;98530.72;;;16.26;100.00
53546;BME280;39432;51.902;10.844;2023-07-02T03:03:58;98529.75;;;16.22;100.00
53546;BME280;39432;51.902;10.844;2023-07-02T03:06:31;98531.34;;;16.05;100.00
53546;BME280;39432;51.902;10.844;2023-07-02T03:09:01;98532.47;;;16.04;100.00
53546;BME280;39432;51.902;10.844;2023-07-02T03:11:31;98536.66;;;15.93;100.00
53546;BME280;39432;51.902;10.844;2023-07-02T03:14:01;98536.16;;;15.91;100.00
53546;BME280;39432;51.902;10.844;2023-07-02T03:16:31;98538.38;;;15.72;100.00
53546;BME280;39432;51.902;10.844;2023-07-02T03:19:00;98536.09;;;15.74;100.00
53546;BME280;39432;51.902;10.844;2023-07-02T03:21:33;98544.97;;;15.71;100.00
53546;BME280;39432;51.902;10.844;2023-07-02T03:24:03;98538.53;;;15.75;100.00
53546;BME280;39432;51.902;10.844;2023-07-02T03:26:32;98542.50;;;15.61;100.00
53546;BME280;39432;51.902;10.844;2023-07-02T03:29:02;98536.44;;;15.81;100.00
53546;BME280;39432;51.902;10.844;2023-07-02T03:31:32;98537.56;;;15.71;100.00
53546;BME280;39432;51.902;10.844;2023-07-02T03:34:03;98544.94;;;15.93;100.00
53546;BME280;39432;51.902;10.844;2023-07-02T03:36:36;98554.19;;;15.97;100.00
53546;BME280;39432;51.902;10.844;2023-07-02T03:39:06;98551.63;;;16.10;100.00
53546;BME280;39432;51.902;10.844;2023-07-02T03:41:36;98548.94;;;16.27;100.00
53546;BME280;39432;51.902;10.844;2023-07-02T03:44:06;98557.13;;;16.75;100.00
53546;BME280;39432;51.902;10.844;2023-07-02T03:46:36;98557.28;;;16.96;100.00
53546;BME280;39432;51.902;10.844;2023-07-02T03:49:06;98557.88;;;17.45;100.00
53546;BME280;39432;51.902;10.844;2023-07-02T03:51:39;98550.25;;;17.42;100.00
53546;BME280;39432;51.902;10.844;2023-07-02T03:54:08;98550.22;;;17.59;100.00
53546;BME280;39432;51.902;10.844;2023-07-02T03:56:38;98545.41;;;18.75;100.00
53546;BME280;39432;51.902;10.844;2023-07-02T03:59:08;98533.22;;;18.67;100.00
53546;BME280;39432;51.902;10.844;2023-07-02T04:01:38;98526.03;;;18.66;100.00
53546;BME280;39432;51.902;10.844;2023-07-02T04:04:07;98536.00;;;18.88;100.00
53546;BME280;39432;51.902;10.844;2023-07-02T04:06:41;98545.38;;;17.95;100.00
53546;BME280;39432;51.902;10.844;2023-07-02T04:09:11;98542.38;;;17.61;100.00
53546;BME280;39432;51.902;10.844;2023-07-02T04:11:41;98554.34;;;17.27;100.00
53546;BME280;39432;51.902;10.844;2023-07-02T04:14:10;98554.47;;;17.48;100.00
53546;BME280;39432;51.902;10.844;2023-07-02T04:16:43;98549.31;;;17.85;100.00
53546;BME280;39432;51.902;10.844;2023-07-02T04:19:13;98556.88;;;17.76;100.00
53546;BME280;39432;51.902;10.844;2023-07-02T04:21:45;98555.47;;;18.29;100.00
53546;BME280;39432;51.902;10.844;2023-07-02T04:24:15;98550.50;;;18.13;100.00
53546;BME280;39432;51.902;10.844;2023-07-02T04:26:45;98550.38;;;18.01;100.00
53546;BME280;39432;51.902;10.844;2023-07-02T04:29:35;98554.84;;;17.85;100.00
53546;BME280;39432;51.902;10.844;2023-07-02T04:32:06;98562.59;;;17.53;100.00
53546;BME280;39432;51.902;10.844;2023-07-02T04:34:36;98572.38;;;17.42;100.00
53546;BME280;39432;51.902;10.844;2023-07-02T04:37:09;98575.50;;;17.23;100.00
53546;BME280;39432;51.902;10.844;2023-07-02T04:39:38;98583.28;;;17.30;100.00
53546;BME280;39432;51.902;10.844;2023-07-02T04:42:09;98591.88;;;17.54;100.00
53546;BME280;39432;51.902;10.844;2023-07-02T04:44:42;98595.13;;;17.56;100.00
53546;BME280;39432;51.902;10.844;2023-07-02T04:47:12;98592.88;;;17.24;100.00
53546;BME280;39432;51.902;10.844;2023-07-02T04:49:42;98592.69;;;17.46;100.00
53546;BME280;39432;51.902;10.844;2023-07-02T04:52:14;98588.97;;;17.42;100.00
53546;BME280;39432;51.902;10.844;2023-07-02T04:54:44;98595.16;;;17.39;100.00
53546;BME280;39432;51.902;10.844;2023-07-02T04:57:14;98587.72;;;17.95;100.00
53546;BME280;39432;51.902;10.844;2023-07-02T04:59:44;98587.59;;;17.83;100.00
53546;BME280;39432;51.902;10.844;2023-07-02T05:02:14;98582.25;;;17.69;100.00
53546;BME280;39432;51.902;10.844;2023-07-02T05:04:44;98579.75;;;17.85;100.00
53546;BME280;39432;51.902;10.844;2023-07-02T05:07:17;98577.13;;;17.97;100.00
53546;BME280;39432;51.902;10.844;2023-07-02T05:09:46;98578.16;;;17.84;100.00
53546;BME280;39432;51.902;10.844;2023-07-02T05:12:19;98591.03;;;17.62;100.00
53546;BME280;39432;51.902;10.844;2023-07-02T05:14:48;98585.84;;;17.52;100.00
53546;BME280;39432;51.902;10.844;2023-07-02T05:17:18;98583.59;;;17.46;100.00
53546;BME280;39432;51.902;10.844;2023-07-02T05:19:48;98585.06;;;17.43;100.00
53546;BME280;39432;51.902;10.844;2023-07-02T05:22:21;98587.31;;;17.41;100.00
53546;BME280;39432;51.902;10.844;2023-07-02T05:24:51;98586.19;;;17.51;100.00
53546;BME280;39432;51.902;10.844;2023-07-02T05:27:21;98586.34;;;17.54;100.00
53546;BME280;39432;51.902;10.844;2023-07-02T05:29:50;98582.13;;;17.48;100.00
53546;BME280;39432;51.902;10.844;2023-07-02T05:32:20;98585.19;;;17.55;100.00
53546;BME280;39432;51.902;10.844;2023-07-02T05:34:50;98587.94;;;17.73;100.00
53546;BME280;39432;51.902;10.844;2023-07-02T05:37:23;98588.91;;;17.77;100.00
53546;BME280;39432;51.902;10.844;2023-07-02T05:39:53;98584.69;;;17.71;100.00
53546;BME280;39432;51.902;10.844;2023-07-02T05:42:23;98580.47;;;17.64;100.00
53546;BME280;39432;51.902;10.844;2023-07-02T05:44:52;98585.31;;;17.68;100.00
53546;BME280;39432;51.902;10.844;2023-07-02T05:47:22;98586.94;;;17.69;100.00
53546;BME280;39432;51.902;10.844;2023-07-02T05:49:56;98584.91;;;17.48;100.00
53546;BME280;39432;51.902;10.844;2023-07-02T05:52:28;98598.38;;;17.58;100.00
53546;BME280;39432;51.902;10.844;2023-07-02T05:54:58;98592.66;;;17.63;100.00
53546;BME280;39432;51.902;10.844;2023-07-02T05:57:28;98587.97;;;17.64;100.00
53546;BME280;39432;51.902;10.844;2023-07-02T05:59:58;98590.38;;;17.57;100.00
53546;BME280;39432;51.902;10.844;2023-07-02T06:02:38;98596.78;;;17.40;100.00
53546;BME280;39432;51.902;10.844;2023-07-02T06:05:08;98603.06;;;17.58;100.00
53546;BME280;39432;51.902;10.844;2023-07-02T06:07:41;98601.16;;;17.50;100.00
53546;BME280;39432;51.902;10.844;2023-07-02T06:10:10;98606.00;;;17.61;100.00
53546;BME280;39432;51.902;10.844;2023-07-02T06:12:40;98616.59;;;17.59;100.00
53546;BME280;39432;51.902;10.844;2023-07-02T06:15:10;98606.06;;;17.27;100.00
53546;BME280;39432;51.902;10.844;2023-07-02T06:17:40;98607.06;;;17.31;100.00
53546;BME280;39432;51.902;10.844;2023-07-02T06:20:11;98607.19;;;17.43;100.00
53546;BME280;39432;51.902;10.844;2023-07-02T06:22:44;98614.81;;;17.46;100.00
53546;BME280;39432;51.902;10.844;2023-07-02T06:25:14;98605.22;;;17.35;100.00
53546;BME280;39432;51.902;10.844;2023-07-02T06:27:43;98611.44;;;17.32;100.00
53546;BME280;39432;51.902;10.844;2023-07-02T06:30:14;98615.47;;;17.52;100.00
53546;BME280;39432;51.902;10.844;2023-07-02T06:32:43;98630.78;;;17.49;100.00
53546;BME280;39432;51.902;10.844;2023-07-02T06:35:13;98628.84;;;17.32;100.00
53546;BME280;39432;51.902;10.844;2023-07-02T06:37:46;98630.78;;;17.23;100.00
53546;BME280;39432;51.902;10.844;2023-07-02T06:40:16;98658.25;;;17.02;100.00
53546;BME280;39432;51.902;10.844;2023-07-02T06:42:45;98705.69;;;16.47;100.00
53546;BME280;39432;51.902;10.844;2023-07-02T06:45:15;98722.25;;;15.49;100.00
53546;BME280;39432;51.902;10.844;2023-07-02T06:47:45;98745.28;;;14.94;100.00
53546;BME280;39432;51.902;10.844;2023-07-02T06:50:15;98767.00;;;14.68;100.00
53546;BME280;39432;51.902;10.844;2023-07-02T06:52:48;98778.72;;;14.74;100.00
53546;BME280;39432;51.902;10.844;2023-07-02T06:55:17;98777.72;;;14.56;100.00
53546;BME280;39432;51.902;10.844;2023-07-02T06:57:47;98774.03;;;14.88;100.00
53546;BME280;39432;51.902;10.844;2023-07-02T07:00:17;98757.81;;;15.00;100.00
53546;BME280;39432;51.902;10.844;2023-07-02T07:02:47;98759.16;;;14.89;100.00
53546;BME280;39432;51.902;10.844;2023-07-02T07:05:17;98765.84;;;15.11;100.00
53546;BME280;39432;51.902;10.844;2023-07-02T07:07:50;98763.19;;;15.19;100.00
53546;BME280;39432;51.902;10.844;2023-07-02T07:10:20;98770.22;;;15.25;100.00
53546;BME280;39432;51.902;10.844;2023-07-02T07:12:50;98775.63;;;15.31;100.00
53546;BME280;39432;51.902;10.844;2023-07-02T07:15:20;98792.06;;;15.22;100.00
53546;BME280;39432;51.902;10.844;2023-07-02T07:17:50;98803.28;;;15.25;100.00
53546;BME280;39432;51.902;10.844;2023-07-02T07:20:20;98799.06;;;15.42;100.00
53546;BME280;39432;51.902;10.844;2023-07-02T07:22:52;98809.41;;;15.09;100.00
53546;BME280;39432;51.902;10.844;2023-07-02T07:25:22;98796.88;;;15.16;100.00
53546;BME280;39432;51.902;10.844;2023-07-02T07:27:52;98773.19;;;15.29;100.00
53546;BME280;39432;51.902;10.844;2023-07-02T07:30:22;98764.03;;;15.42;100.00
53546;BME280;39432;51.902;10.844;2023-07-02T07:32:52;98762.63;;;15.81;100.00
53546;BME280;39432;51.902;10.844;2023-07-02T07:35:22;98746.72;;;15.78;100.00
53546;BME280;39432;51.902;10.844;2023-07-02T07:37:55;98734.06;;;15.77;100.00
53546;BME280;39432;51.902;10.844;2023-07-02T07:40:25;98737.41;;;15.96;100.00
53546;BME280;39432;51.902;10.844;2023-07-02T07:42:54;98723.88;;;16.71;100.00
53546;BME280;39432;51.902;10.844;2023-07-02T07:45:24;98718.41;;;17.14;100.00
53546;BME280;39432;51.902;10.844;2023-07-02T07:47:54;98712.59;;;17.50;100.00
53546;BME280;39432;51.902;10.844;2023-07-02T07:50:24;98707.19;;;19.20;100.00
53546;BME280;39432;51.902;10.844;2023-07-02T07:52:57;98692.22;;;18.45;100.00
53546;BME280;39432;51.902;10.844;2023-07-02T07:55:27;98688.56;;;18.62;100.00
53546;BME280;39432;51.902;10.844;2023-07-02T07:57:57;98692.53;;;18.05;100.00
53546;BME280;39432;51.902;10.844;2023-07-02T08:00:27;98692.84;;;18.51;100.00
53546;BME280;39432;51.902;10.844;2023-07-02T08:02:57;98692.97;;;18.72;100.00
53546;BME280;39432;51.902;10.844;2023-07-02T08:05:28;98695.31;;;18.05;100.00
53546;BME280;39432;51.902;10.844;2023-07-02T08:08:00;98703.78;;;18.00;100.00
53546;BME280;39432;51.902;10.844;2023-07-02T08:10:30;98700.22;;;18.47;100.00
53546;BME280;39432;51.902;10.844;2023-07-02T08:13:00;98688.72;;;18.36;100.00
53546;BME280;39432;51.902;10.844;2023-07-02T08:15:30;98687.75;;;18.61;100.00
53546;BME280;39432;51.902;10.844;2023-07-02T08:18:00;98681.25;;;18.95;100.00
53546;BME280;39432;51.902;10.844;2023-07-02T08:20:30;98675.81;;;19.29;100.00
53546;BME280;39432;51.902;10.844;2023-07-02T08:23:03;98670.97;;;19.17;100.00
53546;BME280;39432;51.902;10.844;2023-07-02T08:25:33;98689.44;;;19.34;100.00
53546;BME280;39432;51.902;10.844;2023-07-02T08:28:03;98682.69;;;19.22;100.00
53546;BME280;39432;51.902;10.844;2023-07-02T08:30:33;98686.19;;;19.11;100.00
53546;BME280;39432;51.902;10.844;2023-07-02T08:33:02;98683.88;;;19.96;100.00
53546;BME280;39432;51.902;10.844;2023-07-02T08:35:32;98684.53;;;20.39;100.00
53546;BME280;39432;51.902;10.844;2023-07-02T08:38:05;98679.69;;;19.90;100.00
53546;BME280;39432;51.902;10.844;2023-07-02T08:40:35;98686.34;;;19.56;100.00
53546;BME280;39432;51.902;10.844;2023-07-02T08:43:05;98678.50;;;19.58;100.00
53546;BME280;39432;51.902;10.844;2023-07-02T08:45:35;98682.22;;;20.41;100.00
53546;BME280;39432;51.902;10.844;2023-07-02T08:48:05;98699.00;;;19.99;100.00
53546;BME280;39432;51.902;10.844;2023-07-02T08:50:36;98692.34;;;19.58;100.00
53546;BME280;39432;51.902;10.844;2023-07-02T08:53:08;98701.66;;;19.62;100.00
53546;BME280;39432;51.902;10.844;2023-07-02T08:55:38;98703.44;;;19.67;100.00
53546;BME280;39432;51.902;10.844;2023-07-02T08:58:08;98702.72;;;19.49;100.00
53546;BME280;39432;51.902;10.844;2023-07-02T09:00:38;98706.91;;;19.55;100.00
53546;BME280;39432;51.902;10.844;2023-07-02T09:03:13;98700.13;;;19.44;100.00
53546;BME280;39432;51.902;10.844;2023-07-02T09:05:48;98711.38;;;19.47;100.00
53546;BME280;39432;51.902;10.844;2023-07-02T09:08:27;98713.16;;;19.52;100.00
53546;BME280;39432;51.902;10.844;2023-07-02T09:11:11;98723.66;;;19.17;100.00
53546;BME280;39432;51.902;10.844;2023-07-02T09:13:45;98713.81;;;19.07;100.00
53546;BME280;39432;51.902;10.844;2023-07-02T09:16:25;98715.97;;;19.22;100.00
53546;BME280;39432;51.902;10.844;2023-07-02T09:18:57;98707.38;;;19.15;100.00
53546;BME280;39432;51.902;10.844;2023-07-02T09:21:28;98712.56;;;19.67;100.00
53546;BME280;39432;51.902;10.844;2023-07-02T09:24:00;98712.41;;;19.85;100.00
53546;BME280;39432;51.902;10.844;2023-07-02T09:26:30;98703.09;;;20.02;100.00
53546;BME280;39432;51.902;10.844;2023-07-02T09:29:00;98699.50;;;19.68;100.00
53546;BME280;39432;51.902;10.844;2023-07-02T09:31:30;98713.28;;;19.35;100.00
53546;BME280;39432;51.902;10.844;2023-07-02T09:34:03;98720.09;;;19.16;100.00
53546;BME280;39432;51.902;10.844;2023-07-02T09:36:35;98720.28;;;19.11;100.00
53546;BME280;39432;51.902;10.844;2023-07-02T09:39:12;98708.00;;;19.42;100.00
53546;BME280;39432;51.902;10.844;2023-07-02T09:41:43;98712.06;;;19.65;100.00
53546;BME280;39432;51.902;10.844;2023-07-02T09:44:13;98704.47;;;19.54;100.00
53546;BME280;39432;51.902;10.844;2023-07-02T09:46:47;98708.72;;;19.93;100.00
53546;BME280;39432;51.902;10.844;2023-07-02T09:49:20;98704.88;;;19.43;100.00
53546;BME280;39432;51.902;10.844;2023-07-02T09:51:50;98714.75;;;19.32;100.00
53546;BME280;39432;51.902;10.844;2023-07-02T09:54:23;98724.66;;;19.42;100.00
53546;BME280;39432;51.902;10.844;2023-07-02T09:56:53;98711.13;;;19.61;100.00
53546;BME280;39432;51.902;10.844;2023-07-02T09:59:22;98714.53;;;19.67;100.00
53546;BME280;39432;51.902;10.844;2023-07-02T10:01:53;98714.91;;;19.78;100.00
53546;BME280;39432;51.902;10.844;2023-07-02T10:04:24;98725.34;;;19.81;100.00
53546;BME280;39432;51.902;10.844;2023-07-02T10:06:55;98717.63;;;19.65;100.00
53546;BME280;39432;51.902;10.844;2023-07-02T10:09:37;98717.81;;;20.14;100.00
53546;BME280;39432;51.902;10.844;2023-07-02T10:12:18;98724.19;;;19.82;100.00
53546;BME280;39432;51.902;10.844;2023-07-02T10:14:49;98721.59;;;19.97;100.00
53546;BME280;39432;51.902;10.844;2023-07-02T10:17:24;98711.41;;;19.68;96.98
53546;BME280;39432;51.902;10.844;2023-07-02T10:19:57;98714.91;;;19.57;94.69
53546;BME280;39432;51.902;10.844;2023-07-02T10:22:28;98720.91;;;19.67;95.40
53546;BME280;39432;51.902;10.844;2023-07-02T10:25:00;98726.69;;;19.95;94.85
53546;BME280;39432;51.902;10.844;2023-07-02T10:27:34;98722.78;;;20.21;93.34
53546;BME280;39432;51.902;10.844;2023-07-02T10:30:06;98722.25;;;20.27;95.41
53546;BME280;39432;51.902;10.844;2023-07-02T10:32:38;98727.69;;;20.24;95.46
53546;BME280;39432;51.902;10.844;2023-07-02T10:35:14;98727.06;;;20.06;95.02
53546;BME280;39432;51.902;10.844;2023-07-02T10:37:45;98727.91;;;19.86;91.87
53546;BME280;39432;51.902;10.844;2023-07-02T10:40:17;98730.69;;;19.86;91.80
53546;BME280;39432;51.902;10.844;2023-07-02T10:42:48;98730.47;;;19.91;93.37
53546;BME280;39432;51.902;10.844;2023-07-02T10:45:19;98724.97;;;20.15;94.67
53546;BME280;39432;51.902;10.844;2023-07-02T10:47:49;98732.63;;;20.06;91.92
53546;BME280;39432;51.902;10.844;2023-07-02T10:50:20;98718.34;;;20.41;90.85
53546;BME280;39432;51.902;10.844;2023-07-02T10:52:50;98725.31;;;20.47;93.86
53546;BME280;39432;51.902;10.844;2023-07-02T10:55:23;98716.31;;;20.87;93.61
53546;BME280;39432;51.902;10.844;2023-07-02T10:58:05;98715.34;;;21.31;89.89
53546;BME280;39432;51.902;10.844;2023-07-02T11:00:43;98718.63;;;21.34;87.95
53546;BME280;39432;51.902;10.844;2023-07-02T11:03:17;98730.19;;;21.23;88.16
53546;BME280;39432;51.902;10.844;2023-07-02T11:05:48;98714.91;;;21.17;81.74
53546;BME280;39432;51.902;10.844;2023-07-02T11:08:19;98720.78;;;21.80;83.24
53546;BME280;39432;51.902;10.844;2023-07-02T11:11:04;98729.03;;;21.24;80.38
53546;BME280;39432;51.902;10.844;2023-07-02T11:13:34;98736.72;;;21.15;83.05
53546;BME280;39432;51.902;10.844;2023-07-02T11:16:04;98741.66;;;21.10;81.42
53546;BME280;39432;51.902;10.844;2023-07-02T11:18:34;98738.69;;;20.66;84.91
53546;BME280;39432;51.902;10.844;2023-07-02T11:21:09;98745.28;;;20.86;86.49
53546;BME280;39432;51.902;10.844;2023-07-02T11:23:40;98747.78;;;20.54;87.62
53546;BME280;39432;51.902;10.844;2023-07-02T11:26:12;98736.59;;;20.87;84.04
53546;BME280;39432;51.902;10.844;2023-07-02T11:28:49;98742.25;;;21.27;83.17
53546;BME280;39432;51.902;10.844;2023-07-02T11:31:26;98735.41;;;21.49;83.55
53546;BME280;39432;51.902;10.844;2023-07-02T11:33:57;98738.44;;;21.44;85.63
53546;BME280;39432;51.902;10.844;2023-07-02T11:36:26;98742.00;;;21.20;84.79
53546;BME280;39432;51.902;10.844;2023-07-02T11:38:56;98737.13;;;21.42;83.49
53546;BME280;39432;51.902;10.844;2023-07-02T11:41:36;98733.22;;;21.43;83.18
53546;BME280;39432;51.902;10.844;2023-07-02T11:44:06;98747.00;;;21.79;83.33
53546;BME280;39432;51.902;10.844;2023-07-02T11:46:36;98740.41;;;21.19;73.35
53546;BME280;39432;51.902;10.844;2023-07-02T11:49:06;98738.69;;;20.90;78.09
53546;BME280;39432;51.902;10.844;2023-07-02T11:51:36;98760.34;;;20.72;77.24
53546;BME280;39432;51.902;10.844;2023-07-02T11:54:07;98750.66;;;20.45;81.01
53546;BME280;39432;51.902;10.844;2023-07-02T11:56:40;98746.91;;;21.11;77.08
53546;BME280;39432;51.902;10.844;2023-07-02T11:59:09;98758.00;;;20.17;76.32
53546;BME280;39432;51.902;10.844;2023-07-02T12:01:39;98753.88;;;20.02;75.68
53546;BME280;39432;51.902;10.844;2023-07-02T12:04:10;98755.09;;;20.13;79.00
53546;BME280;39432;51.902;10.844;2023-07-02T12:06:40;98759.00;;;20.12;79.68
53546;BME280;39432;51.902;10.844;2023-07-02T12:09:10;98761.53;;;20.38;80.68
53546;BME280;39432;51.902;10.844;2023-07-02T12:11:42;98757.31;;;20.65;80.88
53546;BME280;39432;51.902;10.844;2023-07-02T12:14:13;98746.00;;;20.95;76.73
53546;BME280;39432;51.902;10.844;2023-07-02T12:16:43;98754.53;;;21.14;74.49
53546;BME280;39432;51.902;10.844;2023-07-02T12:19:12;98762.72;;;21.72;75.07
53546;BME280;39432;51.902;10.844;2023-07-02T12:21:42;98758.25;;;21.30;71.40
53546;BME280;39432;51.902;10.844;2023-07-02T12:24:12;98761.09;;;21.71;70.18
53546;BME280;39432;51.902;10.844;2023-07-02T12:26:45;98758.50;;;21.38;70.55
53546;BME280;39432;51.902;10.844;2023-07-02T12:29:15;98763.13;;;21.09;69.35
53546;BME280;39432;51.902;10.844;2023-07-02T12:31:44;98765.88;;;20.60;69.06
53546;BME280;39432;51.902;10.844;2023-07-02T12:34:14;98778.41;;;20.66;70.65
53546;BME280;39432;51.902;10.844;2023-07-02T12:36:44;98775.16;;;20.64;72.05
53546;BME280;39432;51.902;10.844;2023-07-02T12:39:14;98785.50;;;21.13;75.78
53546;BME280;39432;51.902;10.844;2023-07-02T12:41:49;98779.13;;;20.88;71.02
53546;BME280;39432;51.902;10.844;2023-07-02T12:44:19;98788.16;;;20.72;70.19
53546;BME280;39432;51.902;10.844;2023-07-02T12:46:48;98772.41;;;21.01;72.11
53546;BME280;39432;51.902;10.844;2023-07-02T12:49:18;98779.84;;;21.34;70.53
53546;BME280;39432;51.902;10.844;2023-07-02T12:51:48;98790.72;;;21.26;70.21
53546;BME280;39432;51.902;10.844;2023-07-02T12:54:18;98789.31;;;21.57;68.77
53546;BME280;39432;51.902;10.844;2023-07-02T12:56:51;98783.41;;;20.97;67.85
53546;BME280;39432;51.902;10.844;2023-07-02T12:59:20;98786.09;;;21.18;68.80
53546;BME280;39432;51.902;10.844;2023-07-02T13:01:50;98793.28;;;21.31;66.33
53546;BME280;39432;51.902;10.844;2023-07-02T13:04:20;98787.47;;;21.24;69.65
53546;BME280;39432;51.902;10.844;2023-07-02T13:06:50;98802.78;;;21.18;69.94